PWSweather.com
Personal Weather Stations
Station Observations
133525
West Seneca Near Buffalo Airpark, West Seneca, NY 14224

West Seneca Near Buffalo AirparkWest Seneca, NY 14224

Lat: 42.850058, Lon: -78.799754

Elevation: 603

Station Type: Davis Vantage Vue pro2

http://westsenecaweather.com/

Latest ConditionsUpdated 9:00:05 AM EST Sunday, Jan 22, 2017
Currently Today's Max Today's Min Today's Average
Temperature 40.4°F4.7°C 46.8°F8.2°C 38.6°F3.7°C 41.6°F5.3°C
Dew Point 39.9°F4.4°C 45.4°F7.4°C 37.8°F3.2°C 40.6°F4.8°C
Winds 1.2 mph NE1.9 kmh NE 3.5 mph NNE5.6 kmh NNE - 0.6 mph 1.0 kmh
Wind Gusts 2.3 mph3.7 kmh 4.6 mph7.4 kmh - -
Humidity 98% 98% 95% 97%
Pressure 29.67 in1004.7 mb 29.67 in1004.7 mb 29.64 in1003.7 mb -
Hour Temp Dew Point Humidity Winds Wind Gusts Pressure Precip Precip Rate Daily Precip Total
09:00 AM 40.4°F4.7°C 39.9°F4.4°C 98% 1.2 mph NE1.9 kmh NE 2.3 mph3.7 kmh 29.67 in1004.7 mb - 0.00 in0.0 mm 0.00 in0.0 mm
08:50 AM 40.2°F4.6°C 39.7°F4.3°C 98% 2.3 mph NE3.7 kmh NE 2.3 mph3.7 kmh 29.67 in1004.7 mb - 0.00 in0.0 mm 0.00 in0.0 mm
08:40 AM 40.0°F4.4°C 39.5°F4.2°C 98% 2.3 mph E3.7 kmh E 3.5 mph5.6 kmh 29.66 in1004.4 mb - 0.00 in0.0 mm 0.00 in0.0 mm
08:30 AM 39.9°F4.4°C 39.4°F4.1°C 98% 2.3 mph ENE3.7 kmh ENE 3.5 mph5.6 kmh 29.65 in1004.1 mb - 0.00 in0.0 mm 0.00 in0.0 mm
08:20 AM 39.8°F4.3°C 39.3°F4.1°C 98% 3.5 mph NNE5.6 kmh NNE 3.5 mph5.6 kmh 29.65 in1004.1 mb - 0.00 in0.0 mm 0.00 in0.0 mm
08:10 AM 39.4°F4.1°C 38.9°F3.8°C 98% 2.3 mph NE3.7 kmh NE 3.5 mph5.6 kmh 29.65 in1004.1 mb - 0.00 in0.0 mm 0.00 in0.0 mm
07:40 AM 38.6°F3.7°C 37.8°F3.2°C 97% 2.3 mph N3.7 kmh N 3.5 mph5.6 kmh 29.64 in1003.7 mb - 0.00 in0.0 mm 0.00 in0.0 mm
07:30 AM 38.6°F3.7°C 37.8°F3.2°C 97% 1.2 mph NNE1.9 kmh NNE 3.5 mph5.6 kmh 29.64 in1003.7 mb - 0.00 in0.0 mm 0.00 in0.0 mm
07:20 AM 38.8°F3.8°C 38.0°F3.3°C 97% 2.3 mph NE3.7 kmh NE 4.6 mph7.4 kmh 29.64 in1003.7 mb - 0.00 in0.0 mm 0.00 in0.0 mm
07:10 AM 38.9°F3.8°C 38.1°F3.4°C 97% 1.2 mph NE1.9 kmh NE 3.5 mph5.6 kmh 29.65 in1004.1 mb - 0.00 in0.0 mm 0.00 in0.0 mm
07:00 AM 39.0°F3.9°C 38.2°F3.4°C 97% 2.3 mph NNE3.7 kmh NNE 3.5 mph5.6 kmh 29.64 in1003.7 mb - 0.00 in0.0 mm 0.00 in0.0 mm
06:50 AM 39.2°F4.0°C 38.4°F3.6°C 97% 2.3 mph NE3.7 kmh NE 3.5 mph5.6 kmh 29.64 in1003.7 mb - 0.00 in0.0 mm 0.00 in0.0 mm
06:40 AM 39.2°F4.0°C 38.5°F3.6°C 97% Calm Calm 1.2 mph1.9 kmh 29.65 in1004.1 mb - 0.00 in0.0 mm 0.00 in0.0 mm
06:30 AM 39.3°F4.1°C 38.5°F3.6°C 97% 1.2 mph NE1.9 kmh NE 2.3 mph3.7 kmh 29.65 in1004.1 mb - 0.00 in0.0 mm 0.00 in0.0 mm
06:20 AM 39.4°F4.1°C 38.6°F3.7°C 97% 1.2 mph NE1.9 kmh NE 3.5 mph5.6 kmh 29.65 in1004.1 mb - 0.00 in0.0 mm 0.00 in0.0 mm
06:10 AM 39.5°F4.2°C 38.8°F3.8°C 97% Calm Calm -- 29.65 in1004.1 mb - 0.00 in0.0 mm 0.00 in0.0 mm
06:00 AM 39.7°F4.3°C 38.9°F3.8°C 97% 2.3 mph NNE3.7 kmh NNE 3.5 mph5.6 kmh 29.65 in1004.1 mb - 0.00 in0.0 mm 0.00 in0.0 mm
05:50 AM 39.8°F4.3°C 39.1°F3.9°C 97% Calm Calm 2.3 mph3.7 kmh 29.65 in1004.1 mb - 0.00 in0.0 mm 0.00 in0.0 mm
05:40 AM 39.9°F4.4°C 39.1°F3.9°C 97% Calm Calm 1.2 mph1.9 kmh 29.65 in1004.1 mb - 0.00 in0.0 mm 0.00 in0.0 mm
05:30 AM 39.9°F4.4°C 39.1°F3.9°C 97% 1.2 mph N1.9 kmh N 1.2 mph1.9 kmh 29.65 in1004.1 mb - 0.00 in0.0 mm 0.00 in0.0 mm
05:20 AM 39.9°F4.4°C 39.1°F3.9°C 97% 1.2 mph N1.9 kmh N 2.3 mph3.7 kmh 29.65 in1004.1 mb - 0.00 in0.0 mm 0.00 in0.0 mm
05:10 AM 39.9°F4.4°C 39.1°F3.9°C 97% Calm Calm -- 29.66 in1004.4 mb - 0.00 in0.0 mm 0.00 in0.0 mm
05:00 AM 39.7°F4.3°C 38.9°F3.8°C 97% 1.2 mph NE1.9 kmh NE 2.3 mph3.7 kmh 29.66 in1004.4 mb - 0.00 in0.0 mm 0.00 in0.0 mm
04:50 AM 38.8°F3.8°C 38.0°F3.3°C 97% Calm Calm 1.2 mph1.9 kmh 29.66 in1004.4 mb - 0.00 in0.0 mm 0.00 in0.0 mm
04:40 AM 39.0°F3.9°C 38.2°F3.4°C 97% Calm Calm -- 29.66 in1004.4 mb - 0.00 in0.0 mm 0.00 in0.0 mm
04:30 AM 39.2°F4.0°C 38.2°F3.4°C 96% Calm Calm -- 29.66 in1004.4 mb - 0.00 in0.0 mm 0.00 in0.0 mm
04:20 AM 39.5°F4.2°C 38.7°F3.7°C 97% Calm Calm -- 29.66 in1004.4 mb - 0.00 in0.0 mm 0.00 in0.0 mm
04:10 AM 39.8°F4.3°C 38.8°F3.8°C 96% Calm Calm -- 29.66 in1004.4 mb - 0.00 in0.0 mm 0.00 in0.0 mm
04:00 AM 40.0°F4.4°C 39.2°F4.0°C 97% Calm Calm -- 29.66 in1004.4 mb - 0.00 in0.0 mm 0.00 in0.0 mm
03:50 AM 40.1°F4.5°C 39.1°F3.9°C 96% Calm Calm -- 29.66 in1004.4 mb - 0.00 in0.0 mm 0.00 in0.0 mm
03:40 AM 40.6°F4.8°C 39.5°F4.2°C 96% Calm Calm -- 29.66 in1004.4 mb - 0.00 in0.0 mm 0.00 in0.0 mm
03:30 AM 41.1°F5.1°C 40.1°F4.5°C 96% Calm Calm -- 29.66 in1004.4 mb - 0.00 in0.0 mm 0.00 in0.0 mm
03:20 AM 41.6°F5.3°C 40.5°F4.7°C 96% Calm Calm -- 29.66 in1004.4 mb - 0.00 in0.0 mm 0.00 in0.0 mm
03:10 AM 41.9°F5.5°C 41.1°F5.1°C 97% Calm Calm 1.2 mph1.9 kmh 29.66 in1004.4 mb - 0.00 in0.0 mm 0.00 in0.0 mm
03:00 AM 41.8°F5.4°C 40.7°F4.8°C 96% Calm Calm -- 29.67 in1004.7 mb - 0.00 in0.0 mm 0.00 in0.0 mm
02:50 AM 42.3°F5.7°C 41.2°F5.1°C 96% Calm Calm -- 29.66 in1004.4 mb - 0.00 in0.0 mm 0.00 in0.0 mm
02:40 AM 42.5°F5.8°C 41.4°F5.2°C 96% Calm Calm -- 29.67 in1004.7 mb - 0.00 in0.0 mm 0.00 in0.0 mm
02:30 AM 43.4°F6.3°C 42.3°F5.7°C 96% Calm Calm -- 29.66 in1004.4 mb - 0.00 in0.0 mm 0.00 in0.0 mm
02:20 AM 43.5°F6.4°C 42.5°F5.8°C 96% Calm Calm -- 29.66 in1004.4 mb - 0.00 in0.0 mm 0.00 in0.0 mm
02:10 AM 43.8°F6.6°C 42.7°F5.9°C 96% Calm Calm -- 29.66 in1004.4 mb - 0.00 in0.0 mm 0.00 in0.0 mm
02:00 AM 44.1°F6.7°C 43.0°F6.1°C 96% Calm Calm -- 29.66 in1004.4 mb - 0.00 in0.0 mm 0.00 in0.0 mm
01:50 AM 44.6°F7.0°C 43.5°F6.4°C 96% Calm Calm -- 29.66 in1004.4 mb - 0.00 in0.0 mm 0.00 in0.0 mm
01:40 AM 45.1°F7.3°C 44.0°F6.7°C 96% Calm Calm -- 29.66 in1004.4 mb - 0.00 in0.0 mm 0.00 in0.0 mm
01:30 AM 45.3°F7.4°C 44.2°F6.8°C 96% Calm Calm -- 29.65 in1004.1 mb - 0.00 in0.0 mm 0.00 in0.0 mm
01:20 AM 45.4°F7.4°C 44.4°F6.9°C 96% Calm Calm -- 29.65 in1004.1 mb - 0.00 in0.0 mm 0.00 in0.0 mm
01:10 AM 45.9°F7.7°C 44.8°F7.1°C 96% Calm Calm -- 29.65 in1004.1 mb - 0.00 in0.0 mm 0.00 in0.0 mm
01:00 AM 46.1°F7.8°C 45.0°F7.2°C 96% Calm Calm -- 29.65 in1004.1 mb - 0.00 in0.0 mm 0.00 in0.0 mm
12:50 AM 46.1°F7.8°C 45.0°F7.2°C 96% Calm Calm -- 29.66 in1004.4 mb - 0.00 in0.0 mm 0.00 in0.0 mm
12:40 AM 46.2°F7.9°C 45.1°F7.3°C 96% Calm Calm -- 29.66 in1004.4 mb - 0.00 in0.0 mm 0.00 in0.0 mm
12:30 AM 46.2°F7.9°C 45.1°F7.3°C 96% Calm Calm -- 29.66 in1004.4 mb - 0.00 in0.0 mm 0.00 in0.0 mm
12:20 AM 46.2°F7.9°C 44.8°F7.1°C 95% Calm Calm -- 29.66 in1004.4 mb - 0.00 in0.0 mm 0.00 in0.0 mm
12:10 AM 46.4°F8.0°C 45.1°F7.3°C 95% Calm Calm -- 29.66 in1004.4 mb - 0.00 in0.0 mm 0.00 in0.0 mm
12:00 AM 46.8°F8.2°C 45.4°F7.4°C 95% Calm Calm -- 29.66 in1004.4 mb - 0.00 in0.0 mm 0.00 in0.0 mm